createdAt,value
2018-03-25T00:02:14.214Z,24.95
2018-03-25T00:04:44.470Z,25.77
2018-03-25T00:07:24.025Z,27.10
2018-03-25T00:09:54.911Z,25.05
2018-03-25T00:15:10.471Z,24.73
2018-03-25T00:17:48.852Z,26.15
2018-03-25T00:20:18.950Z,23.90
2018-03-25T00:22:48.920Z,23.67
2018-03-25T00:25:18.882Z,24.90
2018-03-25T00:27:49.087Z,25.85
2018-03-25T00:30:19.078Z,26.33
2018-03-25T00:32:48.999Z,25.73
2018-03-25T00:35:19.255Z,25.13
2018-03-25T00:37:50.205Z,26.27
2018-03-25T00:40:20.179Z,27.98
2018-03-25T00:42:50.421Z,26.48
2018-03-25T00:45:20.428Z,30.23
2018-03-25T00:47:50.406Z,29.30
2018-03-25T00:50:20.661Z,26.55
2018-03-25T00:52:50.664Z,26.40
2018-03-25T00:55:21.119Z,27.23
2018-03-25T00:57:51.373Z,29.67
2018-03-25T01:00:21.522Z,26.87
2018-03-25T01:02:51.478Z,30.92
2018-03-25T01:05:21.758Z,29.35
2018-03-25T01:07:51.722Z,29.92
2018-03-25T01:10:21.736Z,29.98
2018-03-25T01:12:51.978Z,31.02
2018-03-25T01:15:23.059Z,29.63
2018-03-25T01:17:53.052Z,31.27
2018-03-25T01:20:23.335Z,30.42
2018-03-25T01:22:53.366Z,28.30
2018-03-25T01:25:23.362Z,28.85
2018-03-25T01:27:53.600Z,28.93
2018-03-25T01:30:33.235Z,28.17
2018-03-25T01:33:04.587Z,30.42
2018-03-25T01:35:45.525Z,30.35
2018-03-25T01:38:15.474Z,31.08
2018-03-25T01:40:56.115Z,33.63
2018-03-25T01:43:26.431Z,33.53
2018-03-25T01:48:32.582Z,31.98
2018-03-25T01:51:02.601Z,33.58
2018-03-25T01:53:32.614Z,36.45
2018-03-25T01:56:02.934Z,37.35
2018-03-25T01:58:32.934Z,35.15
2018-03-25T02:01:02.882Z,36.40
2018-03-25T02:03:33.196Z,37.30
2018-03-25T02:06:03.864Z,35.33
2018-03-25T02:08:33.858Z,33.83
2018-03-25T02:11:04.119Z,32.72
2018-03-25T02:13:34.136Z,35.50
2018-03-25T02:16:04.114Z,32.10
2018-03-25T02:18:34.417Z,33.90
2018-03-25T02:21:04.362Z,33.70
2018-03-25T02:23:34.360Z,35.20
2018-03-25T02:26:05.607Z,33.90
2018-03-25T02:28:35.643Z,33.92
2018-03-25T02:31:05.555Z,37.97
2018-03-25T02:33:35.862Z,44.97
2018-03-25T02:36:05.815Z,52.70
2018-03-25T02:38:35.839Z,48.25
2018-03-25T02:41:06.321Z,43.33
2018-03-25T02:43:36.850Z,41.83
2018-03-25T02:46:06.820Z,41.92
2018-03-25T02:48:37.139Z,42.10
2018-03-25T02:51:07.462Z,40.05
2018-03-25T02:53:38.031Z,35.78
2018-03-25T02:56:08.279Z,36.20
2018-03-25T02:58:38.236Z,35.30
2018-03-25T03:01:08.144Z,39.47
2018-03-25T03:03:38.436Z,35.03
2018-03-25T03:06:08.368Z,38.35
2018-03-25T03:08:38.322Z,38.63
2018-03-25T03:11:08.820Z,35.92
2018-03-25T03:13:38.822Z,36.28
2018-03-25T03:16:08.768Z,33.28
2018-03-25T03:18:39.051Z,36.20
2018-03-25T03:21:08.953Z,35.25
2018-03-25T03:23:38.913Z,34.03
2018-03-25T03:26:09.220Z,37.67
2018-03-25T03:28:39.199Z,36.10
2018-03-25T03:31:09.107Z,36.03
2018-03-25T03:33:39.360Z,34.03
2018-03-25T03:36:09.316Z,34.57
2018-03-25T03:38:39.305Z,36.20
2018-03-25T03:41:09.592Z,36.10
2018-03-25T03:43:39.547Z,32.70
2018-03-25T03:46:09.465Z,34.22
2018-03-25T03:48:40.718Z,37.28
2018-03-25T03:51:10.664Z,44.42
2018-03-25T03:53:40.617Z,44.90
2018-03-25T03:56:10.881Z,40.85
2018-03-25T03:58:40.869Z,39.78
2018-03-25T04:01:10.858Z,46.65
2018-03-25T04:03:41.154Z,45.25
2018-03-25T04:06:11.121Z,41.50
2018-03-25T04:08:41.113Z,43.45
2018-03-25T04:11:11.026Z,59.53
2018-03-25T04:13:41.017Z,43.92
2018-03-25T04:16:11.239Z,43.25
2018-03-25T04:18:41.240Z,43.28
2018-03-25T04:21:11.212Z,47.17
2018-03-25T04:23:41.526Z,42.67
2018-03-25T04:26:11.470Z,40.88
2018-03-25T04:28:41.435Z,39.65
2018-03-25T04:31:12.823Z,37.08
2018-03-25T04:33:42.834Z,35.72
2018-03-25T04:36:12.813Z,36.22
2018-03-25T04:38:44.094Z,36.63
2018-03-25T04:41:14.039Z,36.38
2018-03-25T04:43:44.093Z,35.70
2018-03-25T04:46:14.812Z,33.17
2018-03-25T04:48:44.757Z,33.05
2018-03-25T04:51:14.703Z,34.60
2018-03-25T04:53:45.002Z,36.63
2018-03-25T04:56:14.942Z,39.83
2018-03-25T04:58:44.850Z,37.53
2018-03-25T05:01:15.178Z,36.28
2018-03-25T05:03:45.117Z,35.75
2018-03-25T05:06:15.089Z,44.45
2018-03-25T05:08:45.370Z,39.38
2018-03-25T05:11:15.346Z,37.75
2018-03-25T05:13:45.254Z,34.53
2018-03-25T05:16:15.549Z,37.97
2018-03-25T05:18:45.506Z,35.33
2018-03-25T05:21:15.529Z,37.25
2018-03-25T05:23:46.906Z,36.47
2018-03-25T05:26:16.867Z,45.05
2018-03-25T05:28:46.782Z,49.95
2018-03-25T05:31:17.089Z,45.63
2018-03-25T05:33:47.045Z,41.58
2018-03-25T05:36:17.128Z,42.67
2018-03-25T05:38:47.420Z,39.63
2018-03-25T05:41:17.436Z,44.60
2018-03-25T05:43:47.421Z,42.65
2018-03-25T05:46:17.693Z,43.47
2018-03-25T05:48:47.627Z,40.80
2018-03-25T05:51:17.655Z,41.60
2018-03-25T05:53:47.883Z,47.92
2018-03-25T05:56:18.655Z,40.45
2018-03-25T05:58:48.572Z,45.30
2018-03-25T06:03:59.504Z,42.58
2018-03-25T06:06:29.807Z,44.03
2018-03-25T06:08:59.755Z,49.97
2018-03-25T06:11:29.730Z,43.08
2018-03-25T06:13:59.953Z,50.65
2018-03-25T06:16:29.937Z,48.50
2018-03-25T06:18:59.850Z,44.60
2018-03-25T06:21:30.120Z,42.42
2018-03-25T06:24:00.144Z,41.05
2018-03-25T06:26:30.133Z,39.05
2018-03-25T06:29:00.361Z,39.50
2018-03-25T06:31:30.354Z,40.42
2018-03-25T06:34:00.303Z,37.40
2018-03-25T06:36:30.562Z,33.30
2018-03-25T06:39:00.477Z,33.25
2018-03-25T06:41:30.486Z,32.67
2018-03-25T06:44:00.748Z,33.97
2018-03-25T06:46:30.759Z,35.58
2018-03-25T06:49:00.681Z,34.25
2018-03-25T06:51:30.963Z,36.38
2018-03-25T06:54:01.025Z,34.28
2018-03-25T06:56:31.000Z,30.67
2018-03-25T06:59:01.250Z,35.95
2018-03-25T07:01:31.198Z,33.37
2018-03-25T07:04:01.174Z,33.92
2018-03-25T07:06:31.390Z,32.22
2018-03-25T07:09:01.372Z,34.33
2018-03-25T07:11:31.338Z,30.52
2018-03-25T07:16:40.365Z,31.25
2018-03-25T07:19:10.382Z,30.37
2018-03-25T07:21:40.306Z,31.60
2018-03-25T07:24:10.270Z,29.58
2018-03-25T07:26:40.555Z,30.08
2018-03-25T07:29:10.510Z,30.40
2018-03-25T07:31:40.459Z,29.43
2018-03-25T07:34:10.706Z,30.35
2018-03-25T07:36:41.103Z,28.17
2018-03-25T07:39:11.094Z,29.12
2018-03-25T07:41:41.039Z,32.22
2018-03-25T07:44:11.006Z,32.83
2018-03-25T07:46:41.259Z,30.02
2018-03-25T07:49:11.262Z,29.83
2018-03-25T07:51:41.323Z,39.75
2018-03-25T07:54:11.595Z,49.10
2018-03-25T07:56:41.527Z,48.42
2018-03-25T07:59:11.553Z,33.80
2018-03-25T08:01:41.863Z,32.28
2018-03-25T08:04:11.863Z,29.42
2018-03-25T08:06:41.847Z,29.95
2018-03-25T08:09:11.832Z,30.65
2018-03-25T08:11:41.738Z,32.87
2018-03-25T08:14:11.988Z,31.95
2018-03-25T08:16:41.979Z,31.08
2018-03-25T08:19:11.941Z,32.03
2018-03-25T08:21:42.233Z,28.50
2018-03-25T08:24:12.209Z,30.15
2018-03-25T08:26:42.179Z,30.42
2018-03-25T08:29:12.468Z,29.05
2018-03-25T08:31:42.488Z,27.08
2018-03-25T08:34:12.458Z,27.45
2018-03-25T08:36:42.674Z,25.73
2018-03-25T08:39:13.006Z,28.48
2018-03-25T08:41:42.970Z,28.07
2018-03-25T08:44:13.192Z,25.95
2018-03-25T08:46:43.171Z,26.95
2018-03-25T08:49:13.259Z,28.42
2018-03-25T08:51:43.770Z,27.75
2018-03-25T08:54:13.740Z,25.27
2018-03-25T08:56:43.857Z,25.73
2018-03-25T08:59:14.209Z,28.77
2018-03-25T09:01:44.267Z,26.58
2018-03-25T09:04:14.255Z,27.23
2018-03-25T09:06:44.511Z,26.42
2018-03-25T09:09:14.545Z,25.50
2018-03-25T09:11:44.529Z,25.37
2018-03-25T09:14:14.870Z,26.30
2018-03-25T09:16:44.828Z,26.90
2018-03-25T09:19:14.787Z,24.52
2018-03-25T09:21:45.098Z,25.33
2018-03-25T11:14:22.831Z,23.17
2018-03-25T11:16:52.778Z,22.13
2018-03-25T11:19:23.601Z,22.73
2018-03-25T11:21:54.836Z,21.37
2018-03-25T11:24:24.924Z,23.35
2018-03-25T11:26:55.204Z,23.17
2018-03-25T11:29:25.136Z,24.07
2018-03-25T11:31:55.206Z,23.20
2018-03-25T11:34:27.600Z,23.40
2018-03-25T11:36:57.613Z,24.50
2018-03-25T11:40:30.262Z,24.03
2018-03-25T11:43:00.486Z,24.75
2018-03-25T11:45:31.383Z,28.62
2018-03-25T11:48:01.346Z,24.37
2018-03-25T11:50:31.604Z,23.67
2018-03-25T11:53:01.906Z,23.33
2018-03-25T11:55:32.026Z,23.53
2018-03-25T11:58:03.024Z,25.23
2018-03-25T12:00:33.320Z,22.98
2018-03-25T12:03:03.339Z,22.50
2018-03-25T12:05:33.324Z,24.13
2018-03-25T12:08:03.598Z,25.00
2018-03-25T12:10:33.610Z,24.80
2018-03-25T12:13:03.563Z,23.83
2018-03-25T12:15:34.073Z,22.83
2018-03-25T12:18:04.082Z,24.42
2018-03-25T12:20:34.548Z,24.80
2018-03-25T12:23:04.861Z,24.17
2018-03-25T12:25:34.862Z,22.67
2018-03-25T12:28:04.843Z,22.60
2018-03-25T12:30:35.799Z,22.85
2018-03-25T12:33:06.433Z,22.87
2018-03-25T12:35:36.476Z,23.25
2018-03-25T12:38:06.826Z,23.52
2018-03-25T12:40:36.866Z,23.90
2018-03-25T12:43:08.276Z,26.10
2018-03-25T12:45:39.262Z,23.08
2018-03-25T12:51:11.207Z,23.80
2018-03-25T12:53:41.182Z,23.92
2018-03-25T12:56:11.570Z,24.83
2018-03-25T12:58:41.569Z,24.90
2018-03-25T13:01:12.372Z,22.87
2018-03-25T13:03:42.648Z,22.83
2018-03-25T13:06:12.665Z,22.65
2018-03-25T13:08:42.695Z,23.38
2018-03-25T13:11:13.928Z,21.17
2018-03-25T13:13:44.023Z,20.45
2018-03-25T13:16:14.064Z,22.10
2018-03-25T13:18:45.667Z,20.80
2018-03-25T13:21:15.694Z,22.00
2018-03-25T13:23:45.736Z,20.48
2018-03-25T13:26:16.069Z,21.45
2018-03-25T13:28:46.973Z,21.87
2018-03-25T13:31:17.009Z,19.35
2018-03-25T13:33:47.333Z,20.75
2018-03-25T13:36:17.361Z,21.42
2018-03-25T13:38:47.375Z,19.27
2018-03-25T13:41:17.705Z,20.95
2018-03-25T13:43:48.048Z,20.30
2018-03-25T13:46:18.056Z,21.75
2018-03-25T13:48:48.417Z,20.50
2018-03-25T13:51:19.365Z,22.13
2018-03-25T13:53:49.416Z,22.58
2018-03-25T13:56:19.818Z,22.10
2018-03-25T13:58:50.694Z,22.35
2018-03-25T14:03:49.980Z,21.80
2018-03-25T14:06:20.052Z,21.27
2018-03-25T14:08:50.381Z,21.70
2018-03-25T14:11:20.407Z,20.95
2018-03-25T14:13:50.967Z,22.90
2018-03-25T14:16:21.281Z,22.42
2018-03-25T14:21:20.381Z,21.73
2018-03-25T14:23:50.720Z,22.40
2018-03-25T14:36:18.358Z,22.00
2018-03-25T14:38:48.577Z,21.45
2018-03-25T14:41:18.583Z,21.60
2018-03-25T14:43:48.555Z,21.23
2018-03-25T14:46:18.902Z,21.08
2018-03-25T14:48:48.969Z,21.83
2018-03-25T14:51:19.016Z,21.45
2018-03-25T14:53:49.299Z,21.15
2018-03-25T14:56:19.347Z,22.13
2018-03-25T14:58:49.388Z,24.65
2018-03-25T15:01:22.129Z,22.45
2018-03-25T16:23:31.356Z,22.33
2018-03-25T17:08:19.429Z,22.43
2018-03-25T17:10:50.039Z,23.87
2018-03-25T17:13:21.360Z,22.55
2018-03-25T17:15:51.373Z,24.42
2018-03-25T17:18:21.458Z,24.53
2018-03-25T17:20:51.773Z,23.45
2018-03-25T17:23:22.523Z,24.58
2018-03-25T17:28:21.948Z,24.20
2018-03-25T17:30:52.783Z,25.27
2018-03-25T17:33:22.828Z,24.12
2018-03-25T17:35:53.119Z,24.70
2018-03-25T17:38:23.145Z,24.73
2018-03-25T17:48:22.788Z,28.50
